sensor_id;sensor_type;location;lat;lon;timestamp;P1;durP1;ratioP1;P2;durP2;ratioP2
48122;SDS011;33907;47.426;18.906;2023-06-14T00:01:59;9.80;;;4.10;;
48122;SDS011;33907;47.426;18.906;2023-06-14T00:04:28;6.72;;;3.90;;
48122;SDS011;33907;47.426;18.906;2023-06-14T00:06:56;9.25;;;4.20;;
48122;SDS011;33907;47.426;18.906;2023-06-14T00:09:24;8.75;;;4.68;;
48122;SDS011;33907;47.426;18.906;2023-06-14T00:11:52;8.30;;;4.35;;
48122;SDS011;33907;47.426;18.906;2023-06-14T00:14:20;8.05;;;4.68;;
48122;SDS011;33907;47.426;18.906;2023-06-14T00:16:47;9.77;;;3.80;;
48122;SDS011;33907;47.426;18.906;2023-06-14T00:19:15;8.32;;;4.25;;
48122;SDS011;33907;47.426;18.906;2023-06-14T00:21:43;6.87;;;4.32;;
48122;SDS011;33907;47.426;18.906;2023-06-14T00:24:11;9.48;;;4.15;;
48122;SDS011;33907;47.426;18.906;2023-06-14T00:26:40;9.60;;;4.40;;
48122;SDS011;33907;47.426;18.906;2023-06-14T00:29:07;7.05;;;4.05;;
48122;SDS011;33907;47.426;18.906;2023-06-14T00:31:36;7.70;;;4.30;;
48122;SDS011;33907;47.426;18.906;2023-06-14T00:34:04;9.10;;;4.70;;
48122;SDS011;33907;47.426;18.906;2023-06-14T00:36:32;9.60;;;4.50;;
48122;SDS011;33907;47.426;18.906;2023-06-14T00:39:00;7.85;;;4.57;;
48122;SDS011;33907;47.426;18.906;2023-06-14T00:41:27;10.38;;;4.50;;
48122;SDS011;33907;47.426;18.906;2023-06-14T00:43:55;10.95;;;5.10;;
48122;SDS011;33907;47.426;18.906;2023-06-14T00:46:23;10.77;;;5.35;;
48122;SDS011;33907;47.426;18.906;2023-06-14T00:48:54;10.32;;;5.05;;
48122;SDS011;33907;47.426;18.906;2023-06-14T00:51:23;9.35;;;5.20;;
48122;SDS011;33907;47.426;18.906;2023-06-14T00:53:50;11.43;;;5.43;;
48122;SDS011;33907;47.426;18.906;2023-06-14T00:56:18;10.10;;;4.90;;
48122;SDS011;33907;47.426;18.906;2023-06-14T00:58:50;8.95;;;5.32;;
48122;SDS011;33907;47.426;18.906;2023-06-14T01:01:18;11.32;;;4.90;;
48122;SDS011;33907;47.426;18.906;2023-06-14T01:03:46;7.90;;;4.90;;
48122;SDS011;33907;47.426;18.906;2023-06-14T01:09:16;9.55;;;5.30;;
48122;SDS011;33907;47.426;18.906;2023-06-14T01:14:56;8.95;;;5.50;;
48122;SDS011;33907;47.426;18.906;2023-06-14T01:17:24;8.40;;;5.20;;
48122;SDS011;33907;47.426;18.906;2023-06-14T01:19:54;9.38;;;5.75;;
48122;SDS011;33907;47.426;18.906;2023-06-14T01:22:25;9.10;;;5.78;;
48122;SDS011;33907;47.426;18.906;2023-06-14T01:24:54;10.82;;;6.35;;
48122;SDS011;33907;47.426;18.906;2023-06-14T01:27:22;10.18;;;6.20;;
48122;SDS011;33907;47.426;18.906;2023-06-14T01:29:54;9.18;;;6.18;;
48122;SDS011;33907;47.426;18.906;2023-06-14T01:32:24;10.00;;;6.05;;
48122;SDS011;33907;47.426;18.906;2023-06-14T01:34:54;10.25;;;6.53;;
48122;SDS011;33907;47.426;18.906;2023-06-14T01:37:21;12.90;;;7.07;;
48122;SDS011;33907;47.426;18.906;2023-06-14T01:39:49;10.73;;;7.43;;
48122;SDS011;33907;47.426;18.906;2023-06-14T01:42:18;10.88;;;7.37;;
48122;SDS011;33907;47.426;18.906;2023-06-14T01:44:47;12.30;;;6.78;;
48122;SDS011;33907;47.426;18.906;2023-06-14T01:47:14;11.52;;;7.82;;
48122;SDS011;33907;47.426;18.906;2023-06-14T01:49:43;12.35;;;7.87;;
48122;SDS011;33907;47.426;18.906;2023-06-14T01:52:10;13.48;;;7.85;;
48122;SDS011;33907;47.426;18.906;2023-06-14T01:54:37;11.18;;;7.80;;
48122;SDS011;33907;47.426;18.906;2023-06-14T01:57:09;15.40;;;9.52;;
48122;SDS011;33907;47.426;18.906;2023-06-14T01:59:38;12.20;;;8.52;;
48122;SDS011;33907;47.426;18.906;2023-06-14T02:02:05;15.52;;;9.45;;
48122;SDS011;33907;47.426;18.906;2023-06-14T02:04:33;14.52;;;9.10;;
48122;SDS011;33907;47.426;18.906;2023-06-14T02:07:00;16.00;;;9.27;;
48122;SDS011;33907;47.426;18.906;2023-06-14T02:09:28;13.40;;;8.48;;
48122;SDS011;33907;47.426;18.906;2023-06-14T02:11:55;14.68;;;9.00;;
48122;SDS011;33907;47.426;18.906;2023-06-14T02:14:23;16.90;;;9.88;;
48122;SDS011;33907;47.426;18.906;2023-06-14T02:16:52;12.82;;;8.90;;
48122;SDS011;33907;47.426;18.906;2023-06-14T02:19:20;14.75;;;9.73;;
48122;SDS011;33907;47.426;18.906;2023-06-14T02:21:48;17.23;;;10.10;;
48122;SDS011;33907;47.426;18.906;2023-06-14T02:24:16;13.82;;;9.60;;
48122;SDS011;33907;47.426;18.906;2023-06-14T02:26:43;16.80;;;10.80;;
48122;SDS011;33907;47.426;18.906;2023-06-14T02:29:13;17.40;;;11.50;;
48122;SDS011;33907;47.426;18.906;2023-06-14T02:31:42;14.43;;;9.88;;
48122;SDS011;33907;47.426;18.906;2023-06-14T02:34:09;15.60;;;10.35;;
48122;SDS011;33907;47.426;18.906;2023-06-14T02:36:37;15.10;;;10.70;;
48122;SDS011;33907;47.426;18.906;2023-06-14T02:39:09;19.27;;;10.88;;
48122;SDS011;33907;47.426;18.906;2023-06-14T02:41:38;16.00;;;10.40;;
48122;SDS011;33907;47.426;18.906;2023-06-14T02:44:06;15.63;;;10.90;;
48122;SDS011;33907;47.426;18.906;2023-06-14T02:46:33;16.00;;;11.05;;
48122;SDS011;33907;47.426;18.906;2023-06-14T02:49:01;17.12;;;11.05;;
48122;SDS011;33907;47.426;18.906;2023-06-14T02:51:30;16.33;;;10.82;;
48122;SDS011;33907;47.426;18.906;2023-06-14T02:53:58;14.48;;;10.05;;
48122;SDS011;33907;47.426;18.906;2023-06-14T02:56:34;14.63;;;10.57;;
48122;SDS011;33907;47.426;18.906;2023-06-14T02:59:03;18.50;;;11.10;;
48122;SDS011;33907;47.426;18.906;2023-06-14T03:01:32;17.87;;;11.30;;
48122;SDS011;33907;47.426;18.906;2023-06-14T03:04:02;16.37;;;10.85;;
48122;SDS011;33907;47.426;18.906;2023-06-14T03:06:31;17.98;;;11.12;;
48122;SDS011;33907;47.426;18.906;2023-06-14T03:09:02;18.45;;;11.93;;
48122;SDS011;33907;47.426;18.906;2023-06-14T03:11:33;16.70;;;11.02;;
48122;SDS011;33907;47.426;18.906;2023-06-14T03:14:01;18.23;;;11.57;;
48122;SDS011;33907;47.426;18.906;2023-06-14T03:16:31;15.68;;;11.27;;
48122;SDS011;33907;47.426;18.906;2023-06-14T03:18:59;17.37;;;12.10;;
48122;SDS011;33907;47.426;18.906;2023-06-14T03:21:29;19.05;;;12.95;;
48122;SDS011;33907;47.426;18.906;2023-06-14T03:23:57;20.62;;;14.50;;
48122;SDS011;33907;47.426;18.906;2023-06-14T03:26:29;20.42;;;13.73;;
48122;SDS011;33907;47.426;18.906;2023-06-14T03:28:58;19.42;;;13.50;;
48122;SDS011;33907;47.426;18.906;2023-06-14T03:31:28;16.33;;;12.25;;
48122;SDS011;33907;47.426;18.906;2023-06-14T03:34:01;17.95;;;11.57;;
48122;SDS011;33907;47.426;18.906;2023-06-14T03:36:29;18.02;;;12.93;;
48122;SDS011;33907;47.426;18.906;2023-06-14T03:38:56;19.55;;;12.68;;
48122;SDS011;33907;47.426;18.906;2023-06-14T03:41:24;17.73;;;12.93;;
48122;SDS011;33907;47.426;18.906;2023-06-14T03:43:53;17.52;;;11.77;;
48122;SDS011;33907;47.426;18.906;2023-06-14T03:46:21;18.60;;;12.45;;
48122;SDS011;33907;47.426;18.906;2023-06-14T03:48:49;16.70;;;10.90;;
48122;SDS011;33907;47.426;18.906;2023-06-14T03:51:17;18.67;;;12.30;;
48122;SDS011;33907;47.426;18.906;2023-06-14T03:53:45;17.48;;;11.82;;
48122;SDS011;33907;47.426;18.906;2023-06-14T03:56:33;16.10;;;11.25;;
48122;SDS011;33907;47.426;18.906;2023-06-14T03:59:05;15.13;;;10.70;;
48122;SDS011;33907;47.426;18.906;2023-06-14T04:01:32;14.10;;;10.15;;
48122;SDS011;33907;47.426;18.906;2023-06-14T04:04:01;17.50;;;10.80;;
48122;SDS011;33907;47.426;18.906;2023-06-14T04:06:28;16.15;;;10.63;;
48122;SDS011;33907;47.426;18.906;2023-06-14T04:08:59;15.93;;;11.15;;
48122;SDS011;33907;47.426;18.906;2023-06-14T04:11:30;15.02;;;10.00;;
48122;SDS011;33907;47.426;18.906;2023-06-14T04:13:58;17.80;;;9.65;;
48122;SDS011;33907;47.426;18.906;2023-06-14T04:16:26;16.17;;;11.05;;
48122;SDS011;33907;47.426;18.906;2023-06-14T04:18:54;15.80;;;10.30;;
48122;SDS011;33907;47.426;18.906;2023-06-14T04:21:22;15.10;;;9.93;;
48122;SDS011;33907;47.426;18.906;2023-06-14T04:23:50;15.00;;;9.68;;
48122;SDS011;33907;47.426;18.906;2023-06-14T04:26:21;15.85;;;9.90;;
48122;SDS011;33907;47.426;18.906;2023-06-14T04:28:53;13.27;;;9.55;;
48122;SDS011;33907;47.426;18.906;2023-06-14T04:31:24;14.13;;;9.60;;
48122;SDS011;33907;47.426;18.906;2023-06-14T04:33:57;14.65;;;9.88;;
48122;SDS011;33907;47.426;18.906;2023-06-14T04:36:26;16.08;;;10.13;;
48122;SDS011;33907;47.426;18.906;2023-06-14T04:38:55;16.08;;;10.23;;
48122;SDS011;33907;47.426;18.906;2023-06-14T04:41:23;15.55;;;10.02;;
48122;SDS011;33907;47.426;18.906;2023-06-14T04:43:59;15.60;;;10.20;;
48122;SDS011;33907;47.426;18.906;2023-06-14T04:46:29;15.00;;;10.13;;
48122;SDS011;33907;47.426;18.906;2023-06-14T04:49:01;14.95;;;9.50;;
48122;SDS011;33907;47.426;18.906;2023-06-14T04:51:29;15.82;;;9.02;;
48122;SDS011;33907;47.426;18.906;2023-06-14T04:54:00;12.35;;;8.73;;
48122;SDS011;33907;47.426;18.906;2023-06-14T04:56:29;18.33;;;9.80;;
48122;SDS011;33907;47.426;18.906;2023-06-14T04:58:57;17.70;;;9.00;;
48122;SDS011;33907;47.426;18.906;2023-06-14T05:01:25;16.40;;;9.25;;
48122;SDS011;33907;47.426;18.906;2023-06-14T05:03:53;17.08;;;9.20;;
48122;SDS011;33907;47.426;18.906;2023-06-14T05:06:21;13.82;;;9.20;;
48122;SDS011;33907;47.426;18.906;2023-06-14T05:08:49;14.18;;;9.38;;
48122;SDS011;33907;47.426;18.906;2023-06-14T05:11:17;15.63;;;9.18;;
48122;SDS011;33907;47.426;18.906;2023-06-14T05:13:45;13.75;;;9.38;;
48122;SDS011;33907;47.426;18.906;2023-06-14T05:16:13;13.62;;;8.05;;
48122;SDS011;33907;47.426;18.906;2023-06-14T05:18:46;13.13;;;8.75;;
48122;SDS011;33907;47.426;18.906;2023-06-14T05:21:14;10.93;;;7.43;;
48122;SDS011;33907;47.426;18.906;2023-06-14T05:23:44;12.60;;;8.35;;
48122;SDS011;33907;47.426;18.906;2023-06-14T05:26:12;11.25;;;7.75;;
48122;SDS011;33907;47.426;18.906;2023-06-14T05:28:40;13.77;;;8.77;;
48122;SDS011;33907;47.426;18.906;2023-06-14T05:31:07;13.80;;;8.77;;
48122;SDS011;33907;47.426;18.906;2023-06-14T05:33:35;13.48;;;7.82;;
48122;SDS011;33907;47.426;18.906;2023-06-14T05:36:03;16.23;;;8.40;;
48122;SDS011;33907;47.426;18.906;2023-06-14T05:38:32;12.10;;;7.87;;
48122;SDS011;33907;47.426;18.906;2023-06-14T05:41:00;12.98;;;7.97;;
48122;SDS011;33907;47.426;18.906;2023-06-14T05:43:27;11.63;;;7.75;;
48122;SDS011;33907;47.426;18.906;2023-06-14T05:45:55;11.23;;;8.35;;
48122;SDS011;33907;47.426;18.906;2023-06-14T05:48:22;13.45;;;8.27;;
48122;SDS011;33907;47.426;18.906;2023-06-14T05:50:50;11.93;;;8.20;;
48122;SDS011;33907;47.426;18.906;2023-06-14T05:53:17;12.30;;;7.78;;
48122;SDS011;33907;47.426;18.906;2023-06-14T05:55:45;12.15;;;7.35;;
48122;SDS011;33907;47.426;18.906;2023-06-14T05:58:12;11.43;;;7.85;;
48122;SDS011;33907;47.426;18.906;2023-06-14T06:00:40;11.30;;;7.05;;
48122;SDS011;33907;47.426;18.906;2023-06-14T06:03:08;13.50;;;8.32;;
48122;SDS011;33907;47.426;18.906;2023-06-14T06:05:36;12.75;;;8.15;;
48122;SDS011;33907;47.426;18.906;2023-06-14T06:08:03;12.10;;;7.45;;
48122;SDS011;33907;47.426;18.906;2023-06-14T06:10:31;12.93;;;7.62;;
48122;SDS011;33907;47.426;18.906;2023-06-14T06:13:00;12.15;;;7.05;;
48122;SDS011;33907;47.426;18.906;2023-06-14T06:15:27;13.35;;;8.20;;
48122;SDS011;33907;47.426;18.906;2023-06-14T07:25:28;16.67;;;8.35;;
48122;SDS011;33907;47.426;18.906;2023-06-14T07:27:57;13.15;;;8.65;;
48122;SDS011;33907;47.426;18.906;2023-06-14T07:30:24;13.93;;;8.15;;
48122;SDS011;33907;47.426;18.906;2023-06-14T07:32:54;13.90;;;8.65;;
48122;SDS011;33907;47.426;18.906;2023-06-14T07:35:22;11.55;;;7.45;;
48122;SDS011;33907;47.426;18.906;2023-06-14T07:37:49;13.62;;;8.20;;
48122;SDS011;33907;47.426;18.906;2023-06-14T07:40:17;17.40;;;10.43;;
48122;SDS011;33907;47.426;18.906;2023-06-14T07:42:45;15.75;;;9.07;;
48122;SDS011;33907;47.426;18.906;2023-06-14T07:45:15;18.05;;;9.57;;
48122;SDS011;33907;47.426;18.906;2023-06-14T07:47:43;17.05;;;9.15;;
48122;SDS011;33907;47.426;18.906;2023-06-14T07:50:11;15.45;;;9.07;;
48122;SDS011;33907;47.426;18.906;2023-06-14T07:52:40;13.30;;;8.13;;
48122;SDS011;33907;47.426;18.906;2023-06-14T07:55:08;16.15;;;8.38;;
48122;SDS011;33907;47.426;18.906;2023-06-14T07:57:35;14.75;;;9.15;;
48122;SDS011;33907;47.426;18.906;2023-06-14T08:00:03;11.45;;;7.18;;
48122;SDS011;33907;47.426;18.906;2023-06-14T08:02:38;13.48;;;7.75;;
48122;SDS011;33907;47.426;18.906;2023-06-14T08:05:06;12.63;;;7.43;;
48122;SDS011;33907;47.426;18.906;2023-06-14T08:07:33;12.18;;;6.80;;
48122;SDS011;33907;47.426;18.906;2023-06-14T08:10:01;13.85;;;7.87;;
48122;SDS011;33907;47.426;18.906;2023-06-14T08:12:29;14.43;;;7.68;;
48122;SDS011;33907;47.426;18.906;2023-06-14T08:14:56;13.23;;;7.40;;
48122;SDS011;33907;47.426;18.906;2023-06-14T08:17:42;16.87;;;7.25;;
48122;SDS011;33907;47.426;18.906;2023-06-14T08:20:11;12.60;;;7.35;;
48122;SDS011;33907;47.426;18.906;2023-06-14T08:22:40;11.07;;;6.40;;
48122;SDS011;33907;47.426;18.906;2023-06-14T08:25:10;11.48;;;6.10;;
48122;SDS011;33907;47.426;18.906;2023-06-14T08:27:39;15.00;;;6.22;;
48122;SDS011;33907;47.426;18.906;2023-06-14T08:30:08;11.55;;;5.80;;
48122;SDS011;33907;47.426;18.906;2023-06-14T08:32:36;16.12;;;5.82;;
48122;SDS011;33907;47.426;18.906;2023-06-14T08:35:04;12.18;;;6.43;;
48122;SDS011;33907;47.426;18.906;2023-06-14T08:37:32;13.45;;;5.80;;
48122;SDS011;33907;47.426;18.906;2023-06-14T08:40:03;11.80;;;5.93;;
48122;SDS011;33907;47.426;18.906;2023-06-14T08:42:33;11.82;;;6.05;;
48122;SDS011;33907;47.426;18.906;2023-06-14T08:45:02;10.43;;;5.18;;
48122;SDS011;33907;47.426;18.906;2023-06-14T08:47:31;11.07;;;5.90;;
48122;SDS011;33907;47.426;18.906;2023-06-14T08:50:08;9.07;;;5.35;;
48122;SDS011;33907;47.426;18.906;2023-06-14T08:52:54;9.73;;;5.40;;
48122;SDS011;33907;47.426;18.906;2023-06-14T08:55:24;12.77;;;5.50;;
48122;SDS011;33907;47.426;18.906;2023-06-14T08:57:55;10.98;;;4.65;;
48122;SDS011;33907;47.426;18.906;2023-06-14T09:00:27;9.32;;;4.80;;
48122;SDS011;33907;47.426;18.906;2023-06-14T09:02:55;11.90;;;4.55;;
48122;SDS011;33907;47.426;18.906;2023-06-14T09:05:24;12.18;;;4.40;;
48122;SDS011;33907;47.426;18.906;2023-06-14T09:07:53;9.30;;;4.25;;
48122;SDS011;33907;47.426;18.906;2023-06-14T09:10:24;9.75;;;4.45;;
48122;SDS011;33907;47.426;18.906;2023-06-14T09:12:54;11.63;;;4.60;;
48122;SDS011;33907;47.426;18.906;2023-06-14T09:15:22;10.20;;;4.78;;
48122;SDS011;33907;47.426;18.906;2023-06-14T09:17:50;9.48;;;4.50;;
48122;SDS011;33907;47.426;18.906;2023-06-14T09:20:19;8.57;;;4.30;;
48122;SDS011;33907;47.426;18.906;2023-06-14T09:22:46;11.55;;;6.10;;
48122;SDS011;33907;47.426;18.906;2023-06-14T09:25:14;8.90;;;4.47;;
48122;SDS011;33907;47.426;18.906;2023-06-14T09:28:03;10.90;;;5.57;;
48122;SDS011;33907;47.426;18.906;2023-06-14T09:30:33;13.85;;;5.45;;
48122;SDS011;33907;47.426;18.906;2023-06-14T09:33:01;9.57;;;5.15;;
48122;SDS011;33907;47.426;18.906;2023-06-14T09:35:30;10.30;;;5.47;;
48122;SDS011;33907;47.426;18.906;2023-06-14T09:37:58;8.45;;;4.90;;
48122;SDS011;33907;47.426;18.906;2023-06-14T09:40:26;12.10;;;5.18;;
48122;SDS011;33907;47.426;18.906;2023-06-14T09:42:54;10.00;;;5.47;;
48122;SDS011;33907;47.426;18.906;2023-06-14T09:45:25;12.90;;;5.12;;
48122;SDS011;33907;47.426;18.906;2023-06-14T09:47:57;11.02;;;4.40;;
48122;SDS011;33907;47.426;18.906;2023-06-14T09:50:33;11.00;;;5.20;;
48122;SDS011;33907;47.426;18.906;2023-06-14T09:53:09;10.45;;;4.78;;
48122;SDS011;33907;47.426;18.906;2023-06-14T09:55:39;9.48;;;5.00;;
48122;SDS011;33907;47.426;18.906;2023-06-14T09:58:08;9.00;;;4.07;;
48122;SDS011;33907;47.426;18.906;2023-06-14T10:00:37;9.55;;;4.60;;
48122;SDS011;33907;47.426;18.906;2023-06-14T10:03:11;8.40;;;4.65;;
48122;SDS011;33907;47.426;18.906;2023-06-14T10:05:41;14.55;;;4.78;;
48122;SDS011;33907;47.426;18.906;2023-06-14T10:08:13;11.30;;;4.60;;
48122;SDS011;33907;47.426;18.906;2023-06-14T10:10:45;7.85;;;4.00;;
48122;SDS011;33907;47.426;18.906;2023-06-14T10:13:13;10.40;;;4.78;;
48122;SDS011;33907;47.426;18.906;2023-06-14T10:15:42;8.20;;;3.87;;
48122;SDS011;33907;47.426;18.906;2023-06-14T10:21:04;8.52;;;4.15;;
48122;SDS011;33907;47.426;18.906;2023-06-14T10:23:37;9.05;;;4.00;;
48122;SDS011;33907;47.426;18.906;2023-06-14T10:26:07;8.43;;;3.97;;
48122;SDS011;33907;47.426;18.906;2023-06-14T10:28:37;6.12;;;3.30;;
48122;SDS011;33907;47.426;18.906;2023-06-14T10:33:47;5.75;;;3.00;;
48122;SDS011;33907;47.426;18.906;2023-06-14T10:36:30;6.28;;;2.50;;
48122;SDS011;33907;47.426;18.906;2023-06-14T10:41:39;8.98;;;2.78;;
48122;SDS011;33907;47.426;18.906;2023-06-14T10:46:48;5.30;;;2.70;;
48122;SDS011;33907;47.426;18.906;2023-06-14T10:49:18;7.30;;;2.60;;
48122;SDS011;33907;47.426;18.906;2023-06-14T10:51:50;4.97;;;2.47;;
48122;SDS011;33907;47.426;18.906;2023-06-14T10:54:20;8.60;;;2.70;;
48122;SDS011;33907;47.426;18.906;2023-06-14T10:56:48;7.22;;;2.62;;
48122;SDS011;33907;47.426;18.906;2023-06-14T10:59:17;6.25;;;2.62;;
48122;SDS011;33907;47.426;18.906;2023-06-14T11:04:47;6.15;;;2.75;;
48122;SDS011;33907;47.426;18.906;2023-06-14T11:13:07;6.07;;;2.80;;
48122;SDS011;33907;47.426;18.906;2023-06-14T11:15:36;5.28;;;2.75;;
48122;SDS011;33907;47.426;18.906;2023-06-14T11:18:05;6.72;;;2.42;;
48122;SDS011;33907;47.426;18.906;2023-06-14T11:20:34;5.97;;;2.80;;
48122;SDS011;33907;47.426;18.906;2023-06-14T11:23:03;5.25;;;2.78;;
48122;SDS011;33907;47.426;18.906;2023-06-14T11:25:32;5.00;;;2.40;;
48122;SDS011;33907;47.426;18.906;2023-06-14T11:27:59;8.13;;;3.25;;
48122;SDS011;33907;47.426;18.906;2023-06-14T11:30:27;6.80;;;2.60;;
48122;SDS011;33907;47.426;18.906;2023-06-14T11:32:55;5.35;;;2.40;;
48122;SDS011;33907;47.426;18.906;2023-06-14T11:35:25;7.12;;;3.12;;
48122;SDS011;33907;47.426;18.906;2023-06-14T11:37:54;5.00;;;2.70;;
48122;SDS011;33907;47.426;18.906;2023-06-14T11:40:25;6.65;;;2.83;;
48122;SDS011;33907;47.426;18.906;2023-06-14T11:42:59;5.53;;;2.20;;
48122;SDS011;33907;47.426;18.906;2023-06-14T11:45:29;5.87;;;2.78;;
48122;SDS011;33907;47.426;18.906;2023-06-14T11:48:00;7.85;;;2.72;;
48122;SDS011;33907;47.426;18.906;2023-06-14T11:50:27;6.15;;;2.28;;
48122;SDS011;33907;47.426;18.906;2023-06-14T11:52:55;4.85;;;2.42;;
48122;SDS011;33907;47.426;18.906;2023-06-14T11:55:31;5.10;;;2.67;;
48122;SDS011;33907;47.426;18.906;2023-06-14T11:57:58;6.00;;;2.80;;
48122;SDS011;33907;47.426;18.906;2023-06-14T12:00:26;6.40;;;2.83;;
48122;SDS011;33907;47.426;18.906;2023-06-14T12:02:55;5.85;;;2.72;;
48122;SDS011;33907;47.426;18.906;2023-06-14T12:05:24;5.57;;;2.72;;
48122;SDS011;33907;47.426;18.906;2023-06-14T12:07:59;8.90;;;2.70;;
48122;SDS011;33907;47.426;18.906;2023-06-14T12:10:28;7.22;;;2.70;;
48122;SDS011;33907;47.426;18.906;2023-06-14T12:12:56;6.55;;;3.10;;
48122;SDS011;33907;47.426;18.906;2023-06-14T12:15:28;7.22;;;3.00;;
48122;SDS011;33907;47.426;18.906;2023-06-14T12:17:59;5.60;;;2.45;;
48122;SDS011;33907;47.426;18.906;2023-06-14T12:20:30;5.12;;;2.58;;
48122;SDS011;33907;47.426;18.906;2023-06-14T12:22:58;5.93;;;2.67;;
48122;SDS011;33907;47.426;18.906;2023-06-14T12:25:35;5.12;;;2.42;;
48122;SDS011;33907;47.426;18.906;2023-06-14T12:28:07;9.93;;;2.50;;
48122;SDS011;33907;47.426;18.906;2023-06-14T12:30:36;9.75;;;3.08;;
48122;SDS011;33907;47.426;18.906;2023-06-14T12:33:04;6.57;;;2.70;;
48122;SDS011;33907;47.426;18.906;2023-06-14T12:35:33;4.75;;;2.40;;
48122;SDS011;33907;47.426;18.906;2023-06-14T12:38:02;9.27;;;3.28;;
48122;SDS011;33907;47.426;18.906;2023-06-14T12:40:30;5.85;;;2.65;;
48122;SDS011;33907;47.426;18.906;2023-06-14T12:43:02;9.50;;;3.50;;
48122;SDS011;33907;47.426;18.906;2023-06-14T12:45:31;7.07;;;3.28;;
48122;SDS011;33907;47.426;18.906;2023-06-14T12:47:59;5.03;;;2.40;;
48122;SDS011;33907;47.426;18.906;2023-06-14T12:50:26;5.78;;;2.70;;
48122;SDS011;33907;47.426;18.906;2023-06-14T12:52:54;6.45;;;3.20;;
48122;SDS011;33907;47.426;18.906;2023-06-14T12:55:21;7.60;;;3.40;;
48122;SDS011;33907;47.426;18.906;2023-06-14T12:57:49;8.73;;;3.50;;
48122;SDS011;33907;47.426;18.906;2023-06-14T13:00:17;9.98;;;3.30;;
48122;SDS011;33907;47.426;18.906;2023-06-14T13:02:45;8.23;;;2.87;;
48122;SDS011;33907;47.426;18.906;2023-06-14T13:05:13;7.68;;;3.03;;
48122;SDS011;33907;47.426;18.906;2023-06-14T13:07:41;6.37;;;3.35;;
48122;SDS011;33907;47.426;18.906;2023-06-14T13:10:08;5.53;;;2.97;;
48122;SDS011;33907;47.426;18.906;2023-06-14T13:12:36;8.48;;;3.72;;
48122;SDS011;33907;47.426;18.906;2023-06-14T13:15:04;6.07;;;2.90;;
48122;SDS011;33907;47.426;18.906;2023-06-14T13:17:32;7.28;;;3.47;;
48122;SDS011;33907;47.426;18.906;2023-06-14T13:20:00;7.75;;;3.62;;
48122;SDS011;33907;47.426;18.906;2023-06-14T13:22:29;6.20;;;3.22;;
48122;SDS011;33907;47.426;18.906;2023-06-14T13:24:56;8.65;;;3.70;;
48122;SDS011;33907;47.426;18.906;2023-06-14T13:27:25;7.43;;;2.92;;
48122;SDS011;33907;47.426;18.906;2023-06-14T13:29:53;9.98;;;3.17;;
48122;SDS011;33907;47.426;18.906;2023-06-14T13:32:22;5.47;;;2.78;;
48122;SDS011;33907;47.426;18.906;2023-06-14T13:34:50;6.68;;;3.30;;
48122;SDS011;33907;47.426;18.906;2023-06-14T13:37:18;8.05;;;3.60;;
48122;SDS011;33907;47.426;18.906;2023-06-14T13:39:45;5.90;;;3.10;;
48122;SDS011;33907;47.426;18.906;2023-06-14T13:42:14;8.98;;;3.60;;
48122;SDS011;33907;47.426;18.906;2023-06-14T13:44:42;7.87;;;3.10;;
48122;SDS011;33907;47.426;18.906;2023-06-14T13:47:09;7.82;;;3.25;;
48122;SDS011;33907;47.426;18.906;2023-06-14T13:49:37;8.70;;;3.62;;
48122;SDS011;33907;47.426;18.906;2023-06-14T13:52:05;7.78;;;3.20;;
48122;SDS011;33907;47.426;18.906;2023-06-14T13:54:32;6.03;;;3.10;;
48122;SDS011;33907;47.426;18.906;2023-06-14T13:57:00;8.73;;;3.22;;
48122;SDS011;33907;47.426;18.906;2023-06-14T13:59:27;5.87;;;3.10;;
48122;SDS011;33907;47.426;18.906;2023-06-14T14:01:55;6.62;;;3.20;;
48122;SDS011;33907;47.426;18.906;2023-06-14T14:04:23;6.45;;;2.70;;
48122;SDS011;33907;47.426;18.906;2023-06-14T14:06:50;7.10;;;3.03;;
48122;SDS011;33907;47.426;18.906;2023-06-14T14:09:18;8.32;;;3.25;;
48122;SDS011;33907;47.426;18.906;2023-06-14T14:11:46;6.55;;;3.25;;
48122;SDS011;33907;47.426;18.906;2023-06-14T14:14:15;7.80;;;3.10;;
48122;SDS011;33907;47.426;18.906;2023-06-14T14:16:43;5.37;;;2.78;;
48122;SDS011;33907;47.426;18.906;2023-06-14T14:19:11;6.57;;;3.03;;
48122;SDS011;33907;47.426;18.906;2023-06-14T14:21:39;6.70;;;3.47;;
48122;SDS011;33907;47.426;18.906;2023-06-14T14:24:06;10.20;;;3.03;;
48122;SDS011;33907;47.426;18.906;2023-06-14T14:26:35;4.93;;;2.42;;
48122;SDS011;33907;47.426;18.906;2023-06-14T14:29:03;7.28;;;2.95;;
48122;SDS011;33907;47.426;18.906;2023-06-14T14:31:30;6.12;;;2.67;;
48122;SDS011;33907;47.426;18.906;2023-06-14T14:33:58;8.85;;;2.55;;
48122;SDS011;33907;47.426;18.906;2023-06-14T14:36:25;8.15;;;2.85;;
48122;SDS011;33907;47.426;18.906;2023-06-14T14:38:53;6.82;;;2.80;;
48122;SDS011;33907;47.426;18.906;2023-06-14T14:41:21;7.28;;;3.17;;
48122;SDS011;33907;47.426;18.906;2023-06-14T14:43:48;9.20;;;2.97;;
48122;SDS011;33907;47.426;18.906;2023-06-14T14:46:16;5.80;;;2.70;;
48122;SDS011;33907;47.426;18.906;2023-06-14T14:48:44;8.93;;;2.62;;
48122;SDS011;33907;47.426;18.906;2023-06-14T14:51:11;6.87;;;2.60;;
48122;SDS011;33907;47.426;18.906;2023-06-14T14:53:39;7.75;;;3.08;;
48122;SDS011;33907;47.426;18.906;2023-06-14T14:56:07;6.12;;;2.65;;
48122;SDS011;33907;47.426;18.906;2023-06-14T14:58:34;5.78;;;2.72;;
48122;SDS011;33907;47.426;18.906;2023-06-14T15:01:01;8.00;;;2.62;;
48122;SDS011;33907;47.426;18.906;2023-06-14T15:03:29;6.60;;;2.78;;
48122;SDS011;33907;47.426;18.906;2023-06-14T15:06:01;5.25;;;2.53;;
48122;SDS011;33907;47.426;18.906;2023-06-14T15:08:29;7.25;;;2.42;;
48122;SDS011;33907;47.426;18.906;2023-06-14T15:10:57;5.68;;;2.58;;
48122;SDS011;33907;47.426;18.906;2023-06-14T15:13:25;7.05;;;2.92;;
48122;SDS011;33907;47.426;18.906;2023-06-14T15:15:53;10.75;;;2.85;;
48122;SDS011;33907;47.426;18.906;2023-06-14T15:18:21;7.60;;;3.12;;
48122;SDS011;33907;47.426;18.906;2023-06-14T15:20:49;6.90;;;2.70;;
48122;SDS011;33907;47.426;18.906;2023-06-14T15:23:17;5.40;;;2.40;;
48122;SDS011;33907;47.426;18.906;2023-06-14T15:25:46;9.63;;;2.45;;
48122;SDS011;33907;47.426;18.906;2023-06-14T15:28:14;5.28;;;2.60;;
48122;SDS011;33907;47.426;18.906;2023-06-14T15:30:42;11.40;;;2.95;;
48122;SDS011;33907;47.426;18.906;2023-06-14T15:33:09;6.43;;;2.85;;
48122;SDS011;33907;47.426;18.906;2023-06-14T15:35:37;8.07;;;3.10;;
48122;SDS011;33907;47.426;18.906;2023-06-14T15:38:07;7.95;;;2.90;;
48122;SDS011;33907;47.426;18.906;2023-06-14T15:40:35;7.97;;;2.62;;
48122;SDS011;33907;47.426;18.906;2023-06-14T15:43:02;5.97;;;2.80;;
48122;SDS011;33907;47.426;18.906;2023-06-14T15:45:30;5.93;;;3.00;;
48122;SDS011;33907;47.426;18.906;2023-06-14T15:47:58;5.65;;;2.72;;
48122;SDS011;33907;47.426;18.906;2023-06-14T15:50:27;8.52;;;3.00;;
48122;SDS011;33907;47.426;18.906;2023-06-14T15:52:55;7.85;;;2.85;;
48122;SDS011;33907;47.426;18.906;2023-06-14T15:55:22;5.80;;;2.58;;
48122;SDS011;33907;47.426;18.906;2023-06-14T15:57:50;8.20;;;2.70;;
48122;SDS011;33907;47.426;18.906;2023-06-14T16:00:17;9.32;;;2.60;;
48122;SDS011;33907;47.426;18.906;2023-06-14T16:02:46;5.82;;;2.50;;
48122;SDS011;33907;47.426;18.906;2023-06-14T16:05:13;7.55;;;2.80;;
48122;SDS011;33907;47.426;18.906;2023-06-14T16:07:41;7.22;;;2.70;;
48122;SDS011;33907;47.426;18.906;2023-06-14T16:10:09;7.10;;;3.22;;